createdAt,value
2022-11-05T00:00:49.893Z,50.75
2022-11-05T00:01:48.960Z,54.03
2022-11-05T00:02:48.885Z,53.42
2022-11-05T00:03:48.930Z,52.23
2022-11-05T00:04:48.869Z,51.85
2022-11-05T00:05:48.865Z,51.42
2022-11-05T00:06:48.852Z,52.27
2022-11-05T00:07:48.857Z,52.99
2022-11-05T00:08:48.861Z,52.88
2022-11-05T00:09:48.850Z,54.82
2022-11-05T00:10:48.817Z,49.61
2022-11-05T00:11:48.806Z,51.13
2022-11-05T00:12:48.809Z,49.53
2022-11-05T00:13:48.814Z,49.27
2022-11-05T00:14:48.794Z,50.20
2022-11-05T00:15:48.779Z,50.24
2022-11-05T00:16:48.769Z,51.28
2022-11-05T00:17:48.764Z,48.69
2022-11-05T00:18:48.774Z,50.98
2022-11-05T00:19:48.761Z,48.97
2022-11-05T00:20:48.762Z,50.32
2022-11-05T00:21:48.743Z,51.39
2022-11-05T00:22:48.745Z,52.63
2022-11-05T00:23:48.733Z,52.05
2022-11-05T00:24:48.742Z,49.90
2022-11-05T00:25:48.704Z,52.84
2022-11-05T00:26:48.710Z,53.13
2022-11-05T00:27:48.707Z,53.23
2022-11-05T00:28:48.689Z,51.28
2022-11-05T00:29:48.721Z,51.44
2022-11-05T00:30:48.694Z,47.81
2022-11-05T00:31:48.677Z,51.68
2022-11-05T00:32:48.662Z,51.76
2022-11-05T00:33:48.657Z,51.25
2022-11-05T00:34:48.645Z,50.04
2022-11-05T00:35:48.649Z,49.52
2022-11-05T00:36:48.629Z,53.39
2022-11-05T00:37:50.405Z,50.66
2022-11-05T00:38:49.625Z,50.29
2022-11-05T00:39:48.614Z,54.62
2022-11-05T00:40:48.646Z,53.19
2022-11-05T00:41:48.615Z,49.39
2022-11-05T00:42:48.616Z,49.90
2022-11-05T00:43:48.596Z,54.50
2022-11-05T00:44:48.593Z,50.58
2022-11-05T00:45:48.591Z,54.04
2022-11-05T00:46:48.580Z,50.94
2022-11-05T00:47:48.574Z,51.77
2022-11-05T00:48:48.571Z,50.50
2022-11-05T00:49:48.560Z,51.90
2022-11-05T00:50:48.546Z,52.28
2022-11-05T00:51:48.543Z,51.70
2022-11-05T00:52:48.533Z,52.22
2022-11-05T00:53:48.532Z,52.50
2022-11-05T00:54:48.513Z,49.55
2022-11-05T00:55:48.499Z,48.61
2022-11-05T00:56:48.801Z,52.18
2022-11-05T00:57:48.844Z,56.29
2022-11-05T00:58:48.482Z,50.04
2022-11-05T00:59:48.494Z,53.02
2022-11-05T01:00:48.500Z,51.33
2022-11-05T01:01:48.627Z,50.76
2022-11-05T01:02:48.522Z,50.61
2022-11-05T01:03:51.621Z,53.86
2022-11-05T01:04:49.440Z,54.06
2022-11-05T01:05:48.433Z,57.40
2022-11-05T01:06:48.416Z,51.04
2022-11-05T01:07:48.436Z,53.15
2022-11-05T01:08:48.408Z,53.14
2022-11-05T01:09:48.418Z,52.28
2022-11-05T01:10:48.400Z,48.92
2022-11-05T01:11:48.384Z,50.51
2022-11-05T01:12:48.396Z,54.43
2022-11-05T01:13:48.365Z,55.06
2022-11-05T01:14:48.527Z,53.25
2022-11-05T01:15:48.373Z,53.24
2022-11-05T01:16:48.344Z,52.98
2022-11-05T01:17:48.359Z,51.37
2022-11-05T01:18:48.333Z,49.24
2022-11-05T01:19:48.329Z,53.15
2022-11-05T01:20:48.327Z,53.21
2022-11-05T01:21:48.324Z,52.93
2022-11-05T01:22:48.309Z,50.21
2022-11-05T01:23:48.303Z,51.68
2022-11-05T01:24:48.296Z,49.69
2022-11-05T01:25:48.287Z,52.75
2022-11-05T01:26:48.290Z,51.31
2022-11-05T01:27:48.280Z,51.01
2022-11-05T01:28:48.335Z,49.35
2022-11-05T01:29:48.262Z,49.87
2022-11-05T01:30:48.253Z,50.74
2022-11-05T01:31:48.268Z,49.19
2022-11-05T01:32:48.239Z,51.19
2022-11-05T01:33:48.229Z,53.75
2022-11-05T01:34:48.277Z,52.43
2022-11-05T01:35:48.222Z,50.28
2022-11-05T01:36:48.239Z,51.32
2022-11-05T01:37:48.196Z,51.40
2022-11-05T01:38:48.192Z,51.57
2022-11-05T01:39:48.221Z,48.43
2022-11-05T01:40:48.207Z,50.29
2022-11-05T01:41:48.351Z,48.15
2022-11-05T01:42:48.171Z,49.72
2022-11-05T01:43:48.149Z,48.77
2022-11-05T01:44:48.140Z,52.27
2022-11-05T01:45:48.135Z,49.14
2022-11-05T01:46:48.132Z,50.01
2022-11-05T01:47:48.128Z,50.63
2022-11-05T01:48:48.124Z,50.52
2022-11-05T01:49:48.093Z,49.84
2022-11-05T01:50:48.104Z,51.40
2022-11-05T01:51:48.202Z,49.20
2022-11-05T01:52:48.082Z,50.47
2022-11-05T01:53:48.080Z,50.18
2022-11-05T01:54:48.076Z,51.09
2022-11-05T01:55:48.068Z,50.05
2022-11-05T01:56:48.056Z,49.96
2022-11-05T01:57:48.052Z,47.04
2022-11-05T01:58:48.052Z,48.56
2022-11-05T01:59:48.040Z,48.60
2022-11-05T02:00:48.076Z,51.40
2022-11-05T02:01:48.231Z,52.34
2022-11-05T02:02:48.170Z,52.73
2022-11-05T02:03:48.035Z,53.03
2022-11-05T02:04:48.004Z,48.88
2022-11-05T02:05:47.996Z,47.86
2022-11-05T02:06:47.991Z,49.10
2022-11-05T02:07:47.992Z,50.87
2022-11-05T02:08:47.991Z,51.69
2022-11-05T02:09:47.973Z,50.02
2022-11-05T02:10:47.959Z,49.23
2022-11-05T02:11:47.971Z,49.96
2022-11-05T02:12:47.939Z,51.63
2022-11-05T02:13:47.971Z,54.24
2022-11-05T02:14:47.929Z,49.51
2022-11-05T02:15:47.920Z,47.89
2022-11-05T02:16:47.912Z,52.35
2022-11-05T02:17:47.908Z,48.84
2022-11-05T02:18:47.900Z,48.55
2022-11-05T02:19:47.908Z,49.28
2022-11-05T02:20:51.953Z,52.70
2022-11-05T02:21:48.892Z,49.08
2022-11-05T02:22:47.908Z,53.32
2022-11-05T02:23:47.948Z,54.36
2022-11-05T02:24:47.872Z,52.90
2022-11-05T02:25:47.851Z,49.56
2022-11-05T02:26:47.896Z,51.39
2022-11-05T02:27:47.821Z,52.57
2022-11-05T02:28:47.823Z,51.74
2022-11-05T02:29:47.917Z,50.29
2022-11-05T02:30:47.814Z,48.88
2022-11-05T02:31:47.811Z,50.96
2022-11-05T02:32:47.820Z,49.91
2022-11-05T02:33:47.834Z,52.10
2022-11-05T02:34:47.784Z,52.23
2022-11-05T02:35:47.772Z,48.71
2022-11-05T02:36:47.780Z,51.38
2022-11-05T02:37:47.757Z,50.94
2022-11-05T02:38:47.761Z,51.28
2022-11-05T02:39:47.768Z,54.00
2022-11-05T02:40:47.751Z,49.11
2022-11-05T02:41:47.728Z,50.99
2022-11-05T02:42:47.715Z,50.23
2022-11-05T02:43:47.720Z,50.60
2022-11-05T02:44:47.738Z,47.38
2022-11-05T02:45:47.716Z,50.57
2022-11-05T02:46:47.703Z,52.49
2022-11-05T02:47:47.692Z,56.33
2022-11-05T02:48:47.679Z,55.48
2022-11-05T02:49:47.676Z,52.99
2022-11-05T02:50:47.660Z,53.48
2022-11-05T02:51:47.663Z,50.75
2022-11-05T02:52:47.646Z,51.48
2022-11-05T02:53:47.737Z,52.18
2022-11-05T02:54:47.638Z,52.69
2022-11-05T02:55:47.635Z,50.52
2022-11-05T02:56:47.707Z,51.82
2022-11-05T02:57:47.656Z,52.35
2022-11-05T02:58:47.615Z,53.17
2022-11-05T02:59:47.621Z,51.76
2022-11-05T03:00:47.638Z,50.61
2022-11-05T03:01:47.753Z,51.36
2022-11-05T03:02:47.869Z,51.42
2022-11-05T03:03:47.592Z,50.33
2022-11-05T03:04:47.571Z,52.31
2022-11-05T03:05:47.568Z,54.46
2022-11-05T03:06:47.569Z,53.85
2022-11-05T03:07:47.543Z,54.29
2022-11-05T03:08:47.573Z,52.24
2022-11-05T03:09:47.549Z,52.22
2022-11-05T03:10:47.540Z,53.15
2022-11-05T03:11:47.543Z,53.92
2022-11-05T03:12:47.537Z,52.99
2022-11-05T03:13:47.512Z,53.88
2022-11-05T03:14:47.510Z,54.34
2022-11-05T03:15:47.531Z,50.82
2022-11-05T03:16:47.511Z,54.15
2022-11-05T03:17:47.475Z,51.26
2022-11-05T03:18:47.477Z,53.73
2022-11-05T03:19:47.468Z,50.52
2022-11-05T03:20:47.463Z,54.35
2022-11-05T03:21:47.481Z,52.01
2022-11-05T03:22:47.442Z,52.16
2022-11-05T03:23:47.441Z,55.75
2022-11-05T03:24:47.430Z,54.25
2022-11-05T03:25:47.435Z,53.22
2022-11-05T03:26:47.415Z,51.25
2022-11-05T03:27:47.507Z,51.93
2022-11-05T03:28:47.399Z,51.86
2022-11-05T03:29:47.391Z,53.65
2022-11-05T03:30:47.383Z,50.26
2022-11-05T03:31:47.382Z,53.86
2022-11-05T03:32:47.383Z,52.67
2022-11-05T03:33:47.368Z,49.78
2022-11-05T03:34:47.371Z,58.55
2022-11-05T03:35:47.352Z,51.09
2022-11-05T03:36:47.375Z,53.10
2022-11-05T03:37:47.351Z,54.69
2022-11-05T03:38:47.331Z,51.68
2022-11-05T03:39:47.319Z,51.69
2022-11-05T03:40:47.376Z,55.18
2022-11-05T03:41:47.326Z,50.25
2022-11-05T03:42:48.310Z,52.76
2022-11-05T03:43:47.307Z,49.84
2022-11-05T03:44:47.288Z,48.61
2022-11-05T03:45:47.286Z,51.47
2022-11-05T03:46:47.281Z,54.51
2022-11-05T03:47:47.279Z,51.84
2022-11-05T03:48:47.340Z,53.05
2022-11-05T03:49:47.246Z,53.38
2022-11-05T03:50:47.240Z,51.66
2022-11-05T03:51:47.231Z,51.15
2022-11-05T03:52:47.243Z,53.48
2022-11-05T03:53:47.213Z,55.86
2022-11-05T03:54:47.232Z,56.12
2022-11-05T03:55:47.213Z,53.85
2022-11-05T03:56:47.197Z,53.02
2022-11-05T03:57:47.224Z,52.24
2022-11-05T03:58:47.179Z,53.49
2022-11-05T03:59:47.178Z,52.43
2022-11-05T04:00:47.173Z,51.75
2022-11-05T04:01:47.197Z,51.49
2022-11-05T04:02:47.350Z,50.39
2022-11-05T04:03:47.299Z,51.44
2022-11-05T04:04:47.135Z,53.98
2022-11-05T04:05:47.133Z,54.42
2022-11-05T04:06:47.127Z,50.41
2022-11-05T04:07:47.119Z,54.68
2022-11-05T04:08:47.123Z,54.98
2022-11-05T04:09:47.129Z,54.62
2022-11-05T04:10:47.099Z,55.86
2022-11-05T04:11:47.093Z,51.46
2022-11-05T04:12:47.088Z,54.58
2022-11-05T04:13:47.129Z,56.02
2022-11-05T04:14:47.062Z,55.28
2022-11-05T04:15:47.068Z,53.43
2022-11-05T04:16:47.051Z,53.83
2022-11-05T04:17:47.045Z,53.94
2022-11-05T04:18:47.048Z,52.83
2022-11-05T04:19:47.035Z,52.43
2022-11-05T04:20:47.019Z,54.53
2022-11-05T04:21:47.011Z,52.91
2022-11-05T04:22:47.006Z,52.75
2022-11-05T04:23:47.015Z,51.79
2022-11-05T04:24:46.988Z,51.43
2022-11-05T04:25:46.991Z,50.78
2022-11-05T04:26:46.971Z,50.32
2022-11-05T04:27:46.968Z,53.69
2022-11-05T04:28:46.975Z,50.40
2022-11-05T04:29:46.976Z,52.92
2022-11-05T04:30:46.953Z,54.17
2022-11-05T04:31:46.950Z,53.93
2022-11-05T04:32:46.935Z,55.49
2022-11-05T04:33:46.930Z,56.36
2022-11-05T04:34:46.943Z,52.62
2022-11-05T04:35:46.925Z,54.09
2022-11-05T04:36:46.934Z,54.04
2022-11-05T04:37:46.894Z,55.51
2022-11-05T04:38:46.912Z,56.65
2022-11-05T04:39:46.924Z,54.97
2022-11-05T04:40:46.899Z,53.71
2022-11-05T04:41:46.867Z,52.53
2022-11-05T04:42:46.872Z,53.28
2022-11-05T04:43:46.877Z,54.88
2022-11-05T04:44:46.859Z,52.62
2022-11-05T04:45:46.984Z,51.81
2022-11-05T04:46:46.849Z,52.25
2022-11-05T04:47:46.843Z,51.88
2022-11-05T04:48:46.834Z,50.71
2022-11-05T04:49:46.834Z,51.37
2022-11-05T04:50:46.818Z,49.42
2022-11-05T04:51:46.813Z,52.99
2022-11-05T04:52:46.798Z,52.20
2022-11-05T04:53:46.786Z,51.64
2022-11-05T04:54:46.807Z,52.30
2022-11-05T04:55:46.790Z,53.36
2022-11-05T04:56:46.778Z,54.34
2022-11-05T04:57:46.762Z,49.65
2022-11-05T04:58:46.763Z,50.66
2022-11-05T04:59:46.761Z,52.89
2022-11-05T05:00:46.947Z,50.89
2022-11-05T05:01:46.791Z,51.89
2022-11-05T05:02:46.744Z,51.55
2022-11-05T05:03:46.737Z,52.24
2022-11-05T05:04:46.741Z,51.72
2022-11-05T05:05:46.724Z,51.15
2022-11-05T05:06:46.709Z,52.27
2022-11-05T05:07:46.701Z,49.94
2022-11-05T05:08:46.713Z,51.83
2022-11-05T05:09:46.709Z,55.62
2022-11-05T05:10:46.704Z,56.05
2022-11-05T05:11:46.663Z,54.43
2022-11-05T05:12:46.666Z,56.22
2022-11-05T05:13:46.646Z,51.14
2022-11-05T05:14:46.644Z,56.75
2022-11-05T05:15:46.648Z,53.52
2022-11-05T05:16:46.624Z,53.60
2022-11-05T05:17:46.722Z,54.22
2022-11-05T05:18:46.734Z,53.74
2022-11-05T05:19:46.636Z,52.26
2022-11-05T05:20:46.612Z,55.25
2022-11-05T05:21:46.617Z,53.60
2022-11-05T05:22:46.576Z,54.35
2022-11-05T05:23:46.581Z,53.33
2022-11-05T05:24:52.403Z,52.07
2022-11-05T05:25:48.583Z,57.75
2022-11-05T05:26:46.566Z,55.32
2022-11-05T05:27:46.557Z,53.86
2022-11-05T05:28:46.555Z,53.77
2022-11-05T05:29:46.543Z,55.76
2022-11-05T05:30:46.540Z,55.71
2022-11-05T05:31:46.531Z,56.68
2022-11-05T05:32:46.519Z,54.78
2022-11-05T05:33:46.516Z,56.97
2022-11-05T05:34:46.518Z,58.89
2022-11-05T05:35:46.491Z,60.67
2022-11-05T05:36:46.491Z,59.81
2022-11-05T05:37:46.491Z,60.33
2022-11-05T05:38:46.485Z,62.67
2022-11-05T05:39:46.482Z,62.59
2022-11-05T05:40:46.469Z,60.08
2022-11-05T05:41:46.458Z,61.59
2022-11-05T05:42:46.450Z,60.78
2022-11-05T05:43:46.438Z,59.56
2022-11-05T05:44:46.441Z,59.99
2022-11-05T05:45:46.453Z,60.18
2022-11-05T05:46:46.422Z,58.04
2022-11-05T05:47:46.410Z,57.84
2022-11-05T05:48:46.397Z,58.05
2022-11-05T05:49:46.394Z,59.26
2022-11-05T05:50:46.414Z,57.04
2022-11-05T05:51:46.389Z,55.05
2022-11-05T05:52:46.384Z,58.53
2022-11-05T05:53:46.368Z,56.44
2022-11-05T05:54:46.374Z,58.38
2022-11-05T05:55:46.377Z,56.24
2022-11-05T05:56:46.354Z,57.15
2022-11-05T05:57:46.341Z,56.83
2022-11-05T05:58:46.335Z,57.40
2022-11-05T05:59:46.360Z,57.05
2022-11-05T06:00:46.339Z,57.88
2022-11-05T06:01:46.443Z,56.58
2022-11-05T06:02:46.454Z,56.45
2022-11-05T06:03:46.301Z,55.41
2022-11-05T06:04:46.305Z,56.47
2022-11-05T06:05:46.293Z,54.34
2022-11-05T06:06:46.313Z,55.94
2022-11-05T06:07:46.278Z,56.67
2022-11-05T06:08:46.269Z,56.40
2022-11-05T06:09:46.270Z,53.80
2022-11-05T06:10:46.290Z,54.51
2022-11-05T06:11:46.250Z,54.06
2022-11-05T06:12:46.254Z,53.47
2022-11-05T06:13:46.237Z,56.48
2022-11-05T06:14:46.234Z,60.56
2022-11-05T06:15:46.221Z,56.26
2022-11-05T06:16:46.216Z,55.97
2022-11-05T06:17:46.231Z,54.13
2022-11-05T06:18:46.207Z,59.89
2022-11-05T06:19:46.200Z,56.46
2022-11-05T06:20:46.190Z,56.22
2022-11-05T06:21:46.186Z,59.46
2022-11-05T06:22:46.171Z,58.55
2022-11-05T06:23:46.185Z,58.65
2022-11-05T06:24:46.161Z,57.24
2022-11-05T06:25:46.162Z,58.24
2022-11-05T06:26:46.164Z,59.52
2022-11-05T06:27:46.153Z,59.92
2022-11-05T06:28:46.157Z,59.56
2022-11-05T06:29:46.146Z,56.96
2022-11-05T06:30:46.122Z,55.36
2022-11-05T06:31:46.122Z,59.84
2022-11-05T06:32:46.119Z,59.00
2022-11-05T06:33:46.108Z,54.04
2022-11-05T06:34:46.096Z,57.81
2022-11-05T06:35:46.092Z,57.73
2022-11-05T06:36:46.088Z,56.73
2022-11-05T06:37:46.096Z,59.19
2022-11-05T06:38:46.085Z,60.87
2022-11-05T06:39:46.055Z,60.78
2022-11-05T06:40:46.056Z,59.55
2022-11-05T06:42:11.820Z,59.54
2022-11-05T06:42:48.031Z,58.34
2022-11-05T06:43:46.040Z,57.51
2022-11-05T06:44:46.047Z,59.22
2022-11-05T06:45:46.029Z,57.67
2022-11-05T06:46:48.669Z,59.77
2022-11-05T06:47:47.019Z,60.44
2022-11-05T06:48:46.015Z,56.35
2022-11-05T06:49:45.999Z,58.54
2022-11-05T06:50:45.995Z,57.67
2022-11-05T06:51:45.976Z,58.83
2022-11-05T06:52:45.984Z,57.61
2022-11-05T06:53:46.007Z,59.04
2022-11-05T06:54:45.963Z,57.67
2022-11-05T06:55:45.959Z,55.40
2022-11-05T06:56:45.955Z,56.36
2022-11-05T06:57:45.947Z,58.07
2022-11-05T06:58:45.947Z,59.79
2022-11-05T06:59:45.934Z,60.47
2022-11-05T07:00:46.002Z,58.48
2022-11-05T07:01:46.001Z,56.68
2022-11-05T07:02:45.923Z,59.34
2022-11-05T07:03:45.916Z,57.94
2022-11-05T07:04:45.916Z,59.77
2022-11-05T07:05:45.905Z,60.60
2022-11-05T07:06:45.890Z,60.10
2022-11-05T07:07:45.885Z,60.86
2022-11-05T07:08:45.880Z,58.96
2022-11-05T07:09:45.880Z,59.22
2022-11-05T07:10:45.888Z,61.75
2022-11-05T07:11:45.873Z,58.55
2022-11-05T07:12:45.850Z,58.81
2022-11-05T07:13:45.831Z,61.15
2022-11-05T07:14:45.836Z,58.09
2022-11-05T07:15:45.816Z,58.65
2022-11-05T07:16:45.837Z,59.83
2022-11-05T07:17:45.813Z,60.44
2022-11-05T07:18:45.808Z,59.92
2022-11-05T07:19:45.792Z,57.88
2022-11-05T07:20:45.790Z,59.33
2022-11-05T07:21:45.781Z,62.57
2022-11-05T07:22:45.792Z,59.57
2022-11-05T07:23:45.760Z,58.30
2022-11-05T07:24:45.747Z,58.67
2022-11-05T07:25:45.749Z,59.66
2022-11-05T07:26:45.741Z,58.52
2022-11-05T07:27:45.750Z,58.58
2022-11-05T07:28:45.740Z,57.29
2022-11-05T07:29:45.716Z,58.02
2022-11-05T07:30:45.739Z,57.68
2022-11-05T07:31:45.713Z,56.87
2022-11-05T07:32:45.703Z,56.14
2022-11-05T07:33:45.705Z,56.98
2022-11-05T07:34:45.712Z,57.48
2022-11-05T07:35:45.706Z,56.62
2022-11-05T07:36:45.685Z,56.66
2022-11-05T07:37:45.677Z,58.19
2022-11-05T07:38:45.689Z,56.49
2022-11-05T07:39:45.661Z,59.22
2022-11-05T07:40:45.648Z,58.35
2022-11-05T07:41:45.650Z,58.50
2022-11-05T07:42:45.635Z,58.36
2022-11-05T07:43:45.690Z,56.90
2022-11-05T07:44:45.640Z,56.96
2022-11-05T07:45:45.629Z,57.80
2022-11-05T07:46:45.606Z,56.41
2022-11-05T07:47:45.607Z,56.44
2022-11-05T07:48:45.593Z,56.33
2022-11-05T07:49:45.627Z,58.13
2022-11-05T07:50:45.583Z,56.69
2022-11-05T07:51:45.562Z,56.47
2022-11-05T07:52:46.566Z,57.33
2022-11-05T07:53:45.827Z,57.28
2022-11-05T07:54:45.597Z,58.43
2022-11-05T07:55:45.549Z,57.48
2022-11-05T07:56:45.538Z,56.37
2022-11-05T07:57:45.530Z,56.72
2022-11-05T07:58:45.522Z,55.03
2022-11-05T07:59:45.525Z,57.60
2022-11-05T08:00:45.643Z,58.04
2022-11-05T08:01:45.659Z,56.44
2022-11-05T08:02:45.743Z,55.88
2022-11-05T08:03:45.541Z,56.08
2022-11-05T08:04:45.489Z,57.57
2022-11-05T08:05:45.494Z,57.83
2022-11-05T08:06:45.486Z,54.45
2022-11-05T08:07:45.469Z,54.84
2022-11-05T08:08:45.457Z,55.52
2022-11-05T08:09:45.461Z,55.71
2022-11-05T08:10:45.466Z,57.71
2022-11-05T08:11:45.446Z,56.18
2022-11-05T08:12:45.437Z,54.44
2022-11-05T08:13:45.441Z,53.79
2022-11-05T08:14:45.442Z,54.74
2022-11-05T08:15:45.407Z,53.40
2022-11-05T08:16:45.404Z,55.00
2022-11-05T08:17:45.402Z,58.24
2022-11-05T08:18:45.398Z,56.25
2022-11-05T08:19:45.371Z,56.43
2022-11-05T08:20:45.369Z,55.55
2022-11-05T08:21:45.370Z,54.87
2022-11-05T08:22:45.352Z,53.90
2022-11-05T08:23:45.350Z,55.12
2022-11-05T08:24:45.347Z,54.58
2022-11-05T08:25:45.333Z,54.44
2022-11-05T08:26:45.338Z,55.76
2022-11-05T08:27:45.322Z,52.83
2022-11-05T08:28:45.311Z,52.22
2022-11-05T08:29:45.349Z,53.32
2022-11-05T08:30:45.297Z,53.07
2022-11-05T08:31:45.353Z,53.33
2022-11-05T08:32:45.286Z,52.74
2022-11-05T08:33:45.277Z,53.34
2022-11-05T08:34:45.270Z,52.42
2022-11-05T08:35:45.263Z,53.51
2022-11-05T08:36:45.257Z,53.56
2022-11-05T08:37:45.263Z,53.75
2022-11-05T08:38:45.253Z,54.05
2022-11-05T08:39:45.249Z,52.74
2022-11-05T08:40:45.298Z,53.96
2022-11-05T08:41:45.233Z,54.34
2022-11-05T08:42:45.218Z,52.64
2022-11-05T08:43:45.210Z,52.47
2022-11-05T08:44:45.199Z,54.18
2022-11-05T08:45:45.199Z,54.14
2022-11-05T08:46:45.197Z,52.21
2022-11-05T08:47:45.195Z,52.81
2022-11-05T08:48:45.179Z,53.53
2022-11-05T08:49:45.175Z,52.15
2022-11-05T08:50:46.175Z,53.24
2022-11-05T08:51:45.178Z,53.29
2022-11-05T08:52:45.151Z,54.04
2022-11-05T08:53:45.143Z,55.22
2022-11-05T08:54:45.140Z,55.02
2022-11-05T08:55:45.159Z,56.56
2022-11-05T08:56:45.134Z,53.37
2022-11-05T08:57:45.127Z,55.52
2022-11-05T08:58:45.122Z,55.08
2022-11-05T08:59:45.119Z,56.06
2022-11-05T09:00:45.190Z,53.96
2022-11-05T09:01:45.263Z,54.25
2022-11-05T09:02:45.150Z,54.13
2022-11-05T09:03:45.089Z,54.29
2022-11-05T09:04:45.084Z,53.74
2022-11-05T09:05:45.087Z,55.43
2022-11-05T09:06:45.085Z,55.74
2022-11-05T09:07:45.058Z,54.30
2022-11-05T09:08:45.051Z,53.41
2022-11-05T09:09:45.035Z,54.50
2022-11-05T09:10:45.027Z,55.48
2022-11-05T09:12:10.611Z,56.46
2022-11-05T09:12:47.051Z,55.56
2022-11-05T09:13:45.086Z,55.30
2022-11-05T09:14:45.035Z,55.17
2022-11-05T09:15:45.000Z,55.86
2022-11-05T09:16:44.985Z,53.99
2022-11-05T09:17:45.002Z,55.63
2022-11-05T09:18:44.994Z,54.75
2022-11-05T09:19:45.675Z,53.64
2022-11-05T09:20:45.669Z,54.77
2022-11-05T09:21:44.958Z,54.30
2022-11-05T09:22:44.958Z,55.36
2022-11-05T09:23:44.993Z,54.27
2022-11-05T09:24:44.950Z,54.12
2022-11-05T09:25:44.960Z,52.36
2022-11-05T09:26:44.924Z,55.24
2022-11-05T09:27:44.938Z,54.66
2022-11-05T09:28:44.941Z,54.87
2022-11-05T09:29:44.921Z,55.41
2022-11-05T09:30:44.924Z,55.75
2022-11-05T09:31:44.959Z,56.59
2022-11-05T09:32:44.916Z,55.15
2022-11-05T09:33:44.949Z,55.65
2022-11-05T09:34:44.971Z,54.78
2022-11-05T09:35:44.869Z,55.49
2022-11-05T09:36:44.870Z,55.51
2022-11-05T09:37:44.858Z,53.68
2022-11-05T09:38:44.889Z,55.27
2022-11-05T09:39:44.860Z,55.52
2022-11-05T09:40:44.866Z,55.40
2022-11-05T09:41:44.842Z,53.95
2022-11-05T09:42:44.829Z,54.65
2022-11-05T09:43:44.843Z,54.96
2022-11-05T09:44:44.806Z,54.30
2022-11-05T09:45:45.805Z,54.68
2022-11-05T09:46:44.808Z,55.32
2022-11-05T09:47:44.801Z,57.53
2022-11-05T09:48:44.776Z,62.31
2022-11-05T09:49:45.781Z,58.20
2022-11-05T09:50:44.772Z,54.63
2022-11-05T09:51:44.776Z,53.42
2022-11-05T09:52:44.765Z,55.13
2022-11-05T09:53:44.753Z,53.59
2022-11-05T09:54:44.748Z,54.02
2022-11-05T09:55:44.745Z,54.66
2022-11-05T09:56:44.870Z,54.16
2022-11-05T09:57:44.732Z,54.51
2022-11-05T09:58:44.720Z,54.46
2022-11-05T09:59:44.724Z,56.03
2022-11-05T10:00:44.739Z,52.59
2022-11-05T10:01:44.842Z,53.53
2022-11-05T10:02:44.720Z,54.35
2022-11-05T10:03:44.766Z,55.40
2022-11-05T10:04:44.677Z,55.27
2022-11-05T10:05:44.842Z,54.50
2022-11-05T10:06:44.665Z,54.52
2022-11-05T10:07:44.697Z,55.47
2022-11-05T10:08:44.660Z,54.71
2022-11-05T10:09:44.658Z,53.67
2022-11-05T10:10:44.646Z,52.76
2022-11-05T10:11:44.648Z,53.25
2022-11-05T10:12:44.648Z,54.97
2022-11-05T10:13:44.631Z,56.45
2022-11-05T10:14:44.628Z,53.93
2022-11-05T10:15:44.612Z,55.67
2022-11-05T10:16:44.613Z,54.14
2022-11-05T10:17:44.641Z,58.90
2022-11-05T10:18:44.683Z,62.02
2022-11-05T10:19:44.592Z,59.15
2022-11-05T10:20:44.596Z,55.60
2022-11-05T10:22:05.441Z,55.82
2022-11-05T10:22:49.497Z,56.67
2022-11-05T10:23:45.579Z,54.80
2022-11-05T10:24:44.576Z,54.53
2022-11-05T10:25:44.565Z,55.05
2022-11-05T10:26:44.571Z,56.05
2022-11-05T10:27:44.568Z,56.20
2022-11-05T10:28:44.548Z,55.45
2022-11-05T10:29:44.552Z,55.92
2022-11-05T10:30:44.548Z,55.83
2022-11-05T10:31:44.528Z,55.99
2022-11-05T10:32:44.532Z,55.85
2022-11-05T10:33:44.548Z,54.38
2022-11-05T10:34:44.517Z,56.21
2022-11-05T10:35:44.625Z,54.40
2022-11-05T10:36:44.531Z,55.45
2022-11-05T10:37:44.504Z,56.43
2022-11-05T10:38:44.521Z,56.78
2022-11-05T10:39:45.134Z,56.66
2022-11-05T10:40:44.483Z,56.26
2022-11-05T10:41:44.476Z,53.01
2022-11-05T10:42:44.486Z,57.78
2022-11-05T10:43:44.477Z,58.04
2022-11-05T10:44:44.484Z,56.20
2022-11-05T10:45:44.477Z,56.79
2022-11-05T10:46:44.523Z,54.73
2022-11-05T10:47:44.454Z,54.28
2022-11-05T10:48:44.450Z,55.77
2022-11-05T10:49:44.441Z,57.50
2022-11-05T10:50:44.444Z,57.00
2022-11-05T10:51:44.433Z,56.78
2022-11-05T10:52:44.412Z,56.70
2022-11-05T10:53:44.419Z,58.39
2022-11-05T10:54:44.460Z,58.45
2022-11-05T10:55:44.401Z,56.45
2022-11-05T10:56:44.388Z,57.48
2022-11-05T10:57:44.400Z,57.60
2022-11-05T10:58:44.388Z,57.76
2022-11-05T10:59:44.378Z,56.02
2022-11-05T11:00:44.437Z,56.75
2022-11-05T11:01:44.472Z,58.50
2022-11-05T11:02:44.364Z,58.29
2022-11-05T11:03:44.360Z,56.43
2022-11-05T11:04:44.345Z,56.16
2022-11-05T11:05:44.365Z,56.45
2022-11-05T11:06:44.344Z,56.56
2022-11-05T11:07:44.336Z,55.90
2022-11-05T11:08:44.321Z,56.65
2022-11-05T11:09:44.419Z,57.03
2022-11-05T11:10:44.321Z,57.16
2022-11-05T11:11:44.329Z,56.50
2022-11-05T11:12:44.297Z,56.17
2022-11-05T11:13:44.367Z,56.59
2022-11-05T11:14:44.295Z,57.14
2022-11-05T11:15:44.291Z,57.75
2022-11-05T11:16:44.302Z,54.95
2022-11-05T11:17:44.272Z,54.91
2022-11-05T11:18:44.291Z,55.65
2022-11-05T11:19:44.256Z,54.95
2022-11-05T11:20:44.267Z,55.49
2022-11-05T11:21:44.281Z,56.91
2022-11-05T11:22:44.243Z,56.19
2022-11-05T11:23:44.234Z,56.18
2022-11-05T11:24:44.231Z,56.16
2022-11-05T11:25:44.245Z,56.36
2022-11-05T11:26:44.210Z,56.86
2022-11-05T11:27:44.221Z,56.03
2022-11-05T11:28:44.213Z,55.91
2022-11-05T11:29:49.183Z,56.55
2022-11-05T11:30:46.192Z,56.74
2022-11-05T11:31:45.179Z,57.29
2022-11-05T11:32:44.235Z,55.34
2022-11-05T11:33:44.182Z,57.70
2022-11-05T11:34:44.172Z,57.38
2022-11-05T11:35:44.155Z,56.96
2022-11-05T11:36:44.158Z,57.37
2022-11-05T11:37:44.168Z,57.64
2022-11-05T11:38:44.190Z,55.96
2022-11-05T11:39:44.140Z,56.14
2022-11-05T11:40:44.143Z,56.53
2022-11-05T11:41:44.131Z,58.28
2022-11-05T11:42:44.124Z,59.79
2022-11-05T11:43:44.132Z,57.78
2022-11-05T11:44:44.110Z,57.42
2022-11-05T11:45:44.095Z,61.13
2022-11-05T11:46:44.095Z,62.15
2022-11-05T11:47:44.099Z,62.08
2022-11-05T11:48:44.103Z,63.07
2022-11-05T11:49:44.078Z,60.27
2022-11-05T11:50:44.069Z,56.69
2022-11-05T11:51:49.471Z,61.32
2022-11-05T11:52:45.063Z,59.17
2022-11-05T11:53:44.054Z,59.74
2022-11-05T11:54:44.052Z,58.36
2022-11-05T11:55:44.043Z,57.91
2022-11-05T11:56:44.028Z,59.28
2022-11-05T11:57:44.022Z,60.12
2022-11-05T11:58:44.025Z,58.96
2022-11-05T12:00:09.862Z,58.61
2022-11-05T12:00:46.006Z,59.05
2022-11-05T12:01:44.044Z,60.39
2022-11-05T12:02:44.815Z,59.12
2022-11-05T12:03:43.999Z,59.10
2022-11-05T12:04:43.986Z,58.21
2022-11-05T12:05:43.986Z,59.36
2022-11-05T12:06:43.962Z,58.53
2022-11-05T12:07:43.959Z,60.40
2022-11-05T12:08:45.850Z,59.07
2022-11-05T12:09:44.958Z,59.73
2022-11-05T12:10:43.941Z,58.20
2022-11-05T12:11:43.933Z,60.63
2022-11-05T12:12:43.931Z,59.60
2022-11-05T12:13:44.031Z,58.93
2022-11-05T12:14:46.677Z,59.43
2022-11-05T12:15:44.905Z,61.52
2022-11-05T12:16:43.892Z,59.36
2022-11-05T12:17:43.886Z,59.16
2022-11-05T12:18:43.889Z,57.85
2022-11-05T12:19:43.938Z,58.13
2022-11-05T12:20:45.420Z,56.50
2022-11-05T12:21:58.412Z,57.01
2022-11-05T12:22:45.867Z,58.38
2022-11-05T12:23:43.863Z,59.03
2022-11-05T12:24:43.858Z,58.21
2022-11-05T12:25:43.837Z,57.80
2022-11-05T12:26:44.846Z,56.58
2022-11-05T12:27:43.855Z,57.24
2022-11-05T12:29:12.279Z,57.10
2022-11-05T12:29:45.810Z,59.21
2022-11-05T12:30:43.810Z,58.60
2022-11-05T12:31:43.811Z,58.02
2022-11-05T12:32:43.914Z,56.74
2022-11-05T12:33:43.787Z,56.11
2022-11-05T12:34:43.793Z,56.98
2022-11-05T12:35:48.085Z,56.95
2022-11-05T12:36:45.791Z,57.99
2022-11-05T12:37:43.762Z,57.08
2022-11-05T12:38:43.794Z,57.57
2022-11-05T12:39:43.745Z,56.81
2022-11-05T12:40:43.739Z,56.97
2022-11-05T12:41:43.751Z,55.98
2022-11-05T12:42:43.718Z,56.48
2022-11-05T12:43:43.712Z,56.80
2022-11-05T12:44:43.718Z,57.18
2022-11-05T12:45:43.704Z,55.24
2022-11-05T12:46:43.697Z,57.95
2022-11-05T12:47:43.710Z,58.69
2022-11-05T12:48:43.688Z,57.24
2022-11-05T12:49:43.676Z,57.83
2022-11-05T12:50:43.683Z,57.08
2022-11-05T12:51:43.663Z,57.90
2022-11-05T12:52:43.673Z,56.83